createdAt,value
2022-12-14T00:02:20.678Z,77.49
2022-12-14T00:04:48.899Z,76.82
2022-12-14T00:07:17.223Z,76.56
2022-12-14T00:09:47.103Z,76.38
2022-12-14T00:12:15.376Z,75.79
2022-12-14T00:14:43.610Z,75.58
2022-12-14T00:17:13.227Z,74.98
2022-12-14T00:19:41.450Z,74.86
2022-12-14T00:22:11.117Z,74.87
2022-12-14T00:24:39.543Z,74.79
2022-12-14T00:27:07.760Z,74.53
2022-12-14T00:29:36.628Z,74.09
2022-12-14T00:32:05.996Z,74.34
2022-12-14T00:34:35.646Z,74.30
2022-12-14T00:37:03.987Z,74.01
2022-12-14T00:39:32.286Z,73.71
2022-12-14T00:42:00.581Z,73.57
2022-12-14T00:44:28.884Z,73.55
2022-12-14T00:46:57.187Z,73.55
2022-12-14T00:49:25.437Z,73.53
2022-12-14T00:51:55.035Z,73.67
2022-12-14T00:54:23.891Z,73.37
2022-12-14T00:56:52.709Z,73.08
2022-12-14T00:59:26.960Z,73.03
2022-12-14T01:01:58.248Z,73.17
2022-12-14T01:04:26.635Z,73.37
2022-12-14T01:06:56.536Z,73.21
2022-12-14T01:09:27.409Z,72.97
2022-12-14T01:11:55.672Z,72.74
2022-12-14T01:14:24.279Z,72.69
2022-12-14T01:16:52.814Z,72.57
2022-12-14T01:19:21.012Z,72.35
2022-12-14T01:21:49.271Z,72.36
2022-12-14T01:24:18.918Z,72.13
2022-12-14T01:26:47.168Z,71.73
2022-12-14T01:29:16.324Z,71.51
2022-12-14T01:31:48.621Z,72.22
2022-12-14T01:34:17.921Z,71.94
2022-12-14T01:36:46.321Z,71.55
2022-12-14T01:39:18.361Z,71.55
2022-12-14T01:41:49.459Z,71.47
2022-12-14T01:44:57.514Z,71.89
2022-12-14T01:47:32.227Z,71.72
2022-12-14T01:50:09.458Z,71.85
2022-12-14T01:52:42.400Z,71.53
2022-12-14T01:55:16.109Z,71.56
2022-12-14T01:57:50.264Z,71.33
2022-12-14T02:00:18.606Z,71.31
2022-12-14T02:02:53.443Z,70.95
2022-12-14T02:05:23.781Z,70.79
2022-12-14T02:07:55.752Z,70.83
2022-12-14T02:10:29.241Z,70.67
2022-12-14T02:13:04.721Z,70.65
2022-12-14T02:15:33.849Z,70.55
2022-12-14T02:18:04.867Z,70.53
2022-12-14T02:20:41.992Z,70.48
2022-12-14T02:23:38.965Z,70.45
2022-12-14T02:26:47.766Z,70.30
2022-12-14T02:29:51.682Z,70.36
2022-12-14T02:32:53.981Z,70.10
2022-12-14T02:35:38.552Z,70.84
2022-12-14T02:38:22.015Z,71.23
2022-12-14T02:41:03.214Z,70.95
2022-12-14T02:43:36.435Z,70.73
2022-12-14T02:46:21.118Z,70.59
2022-12-14T02:48:55.066Z,70.49
2022-12-14T02:51:30.317Z,70.44
2022-12-14T02:54:03.455Z,70.23
2022-12-14T02:56:38.256Z,70.17
2022-12-14T02:59:10.434Z,69.73
2022-12-14T03:01:41.298Z,70.54
2022-12-14T03:04:10.041Z,70.46
2022-12-14T03:06:38.374Z,70.49
2022-12-14T03:09:14.467Z,70.39
2022-12-14T03:11:50.653Z,70.55
2022-12-14T03:14:25.497Z,70.62
2022-12-14T03:16:59.863Z,71.25
2022-12-14T03:19:35.409Z,71.14
2022-12-14T03:22:09.162Z,70.80
2022-12-14T03:24:42.822Z,70.66
2022-12-14T03:27:16.754Z,70.42
2022-12-14T03:29:50.622Z,70.41
2022-12-14T03:32:24.919Z,70.30
2022-12-14T03:34:58.601Z,70.43
2022-12-14T03:37:35.868Z,70.91
2022-12-14T03:40:04.712Z,71.10
2022-12-14T03:42:42.717Z,71.39
2022-12-14T03:45:22.885Z,71.97
2022-12-14T03:48:02.523Z,71.63
2022-12-14T03:50:38.726Z,71.56
2022-12-14T03:53:14.197Z,71.17
2022-12-14T03:55:49.157Z,71.26
2022-12-14T03:58:36.216Z,71.44
2022-12-14T04:01:12.145Z,71.85
2022-12-14T04:03:55.482Z,71.40
2022-12-14T04:06:34.281Z,71.26
2022-12-14T04:09:13.603Z,71.21
2022-12-14T04:12:06.921Z,70.94
2022-12-14T04:14:56.283Z,71.13
2022-12-14T04:17:47.725Z,71.17
2022-12-14T04:20:23.352Z,71.30
2022-12-14T04:22:58.428Z,71.80
2022-12-14T04:25:49.426Z,71.86
2022-12-14T04:28:41.093Z,71.73
2022-12-14T04:31:12.617Z,72.16
2022-12-14T04:33:49.258Z,72.00
2022-12-14T04:36:25.930Z,72.08
2022-12-14T04:39:01.287Z,72.20
2022-12-14T04:41:36.412Z,71.95
2022-12-14T04:44:12.491Z,71.55
2022-12-14T04:46:42.640Z,71.20
2022-12-14T04:49:20.492Z,71.12
2022-12-14T04:52:01.914Z,70.65
2022-12-14T04:54:43.697Z,70.29
2022-12-14T04:57:19.470Z,71.10
2022-12-14T04:59:48.699Z,71.24
2022-12-14T05:02:24.581Z,71.03
2022-12-14T05:05:02.346Z,70.63
2022-12-14T05:07:43.612Z,70.75
2022-12-14T05:10:20.202Z,70.39
2022-12-14T05:12:59.077Z,70.47
2022-12-14T05:15:33.111Z,70.27
2022-12-14T05:18:04.356Z,69.89
2022-12-14T05:20:33.012Z,69.46
2022-12-14T05:23:02.660Z,69.68
2022-12-14T05:25:31.064Z,69.55
2022-12-14T05:27:59.322Z,69.20
2022-12-14T05:30:27.753Z,69.08
2022-12-14T05:32:56.115Z,69.19
2022-12-14T05:35:24.428Z,69.12
2022-12-14T05:37:52.743Z,69.34
2022-12-14T05:40:22.387Z,69.27
2022-12-14T05:42:55.498Z,68.89
2022-12-14T05:45:24.294Z,68.73
2022-12-14T05:47:52.514Z,68.77
2022-12-14T05:50:20.815Z,68.81
2022-12-14T05:52:52.199Z,68.70
2022-12-14T05:55:21.786Z,68.58
2022-12-14T05:57:49.989Z,68.45
2022-12-14T06:00:18.857Z,68.22
2022-12-14T06:02:47.177Z,67.96
2022-12-14T06:05:15.845Z,67.93
2022-12-14T06:07:44.085Z,67.99
2022-12-14T06:10:12.393Z,68.00
2022-12-14T06:12:41.950Z,67.94
2022-12-14T06:15:11.398Z,68.02
2022-12-14T06:17:44.141Z,67.81
2022-12-14T06:20:13.377Z,68.08
2022-12-14T06:22:47.336Z,68.16
2022-12-14T06:25:16.253Z,68.43
2022-12-14T06:27:45.829Z,68.32
2022-12-14T06:30:14.947Z,68.39
2022-12-14T06:32:43.157Z,68.67
2022-12-14T06:35:11.535Z,68.95
2022-12-14T06:37:39.787Z,68.84
2022-12-14T06:40:09.826Z,68.71
2022-12-14T06:42:38.078Z,68.84
2022-12-14T06:45:09.024Z,68.74
2022-12-14T06:47:37.303Z,68.57
2022-12-14T06:50:06.633Z,68.65
2022-12-14T06:52:34.920Z,68.54
2022-12-14T06:55:03.208Z,68.63
2022-12-14T06:57:31.475Z,68.48
2022-12-14T06:59:59.759Z,68.46
2022-12-14T07:02:29.576Z,68.26
2022-12-14T07:04:58.098Z,68.58
2022-12-14T07:07:26.368Z,68.40
2022-12-14T07:09:54.643Z,68.21
2022-12-14T07:12:22.856Z,68.29
2022-12-14T07:14:51.813Z,68.27
2022-12-14T07:17:20.314Z,68.47
2022-12-14T07:19:50.134Z,68.28
2022-12-14T07:22:18.615Z,68.21
2022-12-14T07:24:46.933Z,67.80
2022-12-14T07:27:15.202Z,67.69
2022-12-14T07:29:44.786Z,67.88
2022-12-14T07:32:13.102Z,67.84
2022-12-14T07:34:41.575Z,67.77
2022-12-14T07:37:11.240Z,67.57
2022-12-14T07:39:39.526Z,67.66
2022-12-14T07:42:07.926Z,67.38
2022-12-14T07:44:36.166Z,67.77
2022-12-14T07:47:04.385Z,67.99
2022-12-14T07:49:32.659Z,68.05
2022-12-14T07:52:00.892Z,67.93
2022-12-14T07:54:30.847Z,68.03
2022-12-14T07:56:59.183Z,67.70
2022-12-14T07:59:27.458Z,67.61
2022-12-14T08:01:56.691Z,67.72
2022-12-14T08:04:25.075Z,67.57
2022-12-14T08:06:53.851Z,67.55
2022-12-14T08:09:22.386Z,67.22
2022-12-14T08:11:52.071Z,67.46
2022-12-14T08:14:20.807Z,67.23
2022-12-14T08:16:50.720Z,67.08
2022-12-14T08:19:20.628Z,67.13
2022-12-14T08:21:48.954Z,67.15
2022-12-14T08:24:17.961Z,66.97
2022-12-14T08:26:49.047Z,66.66
2022-12-14T08:29:20.956Z,66.74
2022-12-14T08:31:49.251Z,67.10
2022-12-14T08:34:22.628Z,66.55
2022-12-14T08:36:51.375Z,66.05
2022-12-14T08:39:19.775Z,64.87
2022-12-14T08:41:48.328Z,63.97
2022-12-14T08:44:18.744Z,62.49
2022-12-14T08:46:48.705Z,61.13
2022-12-14T08:49:17.210Z,60.04
2022-12-14T08:51:45.530Z,59.06
2022-12-14T08:54:14.116Z,57.74
2022-12-14T08:56:42.494Z,57.65
2022-12-14T08:59:19.810Z,57.57
2022-12-14T09:02:00.173Z,56.53
2022-12-14T09:04:28.733Z,55.85
2022-12-14T09:06:57.517Z,54.20
2022-12-14T09:09:26.180Z,53.88
2022-12-14T09:11:54.453Z,54.06
2022-12-14T09:14:22.796Z,53.46
2022-12-14T09:16:51.163Z,52.67
2022-12-14T09:19:20.840Z,52.67
2022-12-14T09:21:49.090Z,52.15
2022-12-14T09:24:17.419Z,51.00
2022-12-14T09:26:46.947Z,49.71
2022-12-14T09:29:16.534Z,50.34
2022-12-14T09:31:45.573Z,48.54
2022-12-14T09:34:14.284Z,48.78
2022-12-14T09:36:44.116Z,48.63
2022-12-14T09:39:14.882Z,46.28
2022-12-14T09:42:01.325Z,46.57
2022-12-14T09:44:44.914Z,46.69
2022-12-14T09:47:17.745Z,46.48
2022-12-14T09:49:51.080Z,46.00
2022-12-14T09:52:24.186Z,46.28
2022-12-14T09:54:52.994Z,45.67
2022-12-14T09:57:30.105Z,44.25
2022-12-14T09:59:58.464Z,44.93
2022-12-14T10:02:41.408Z,43.80
2022-12-14T10:05:47.039Z,44.11
2022-12-14T10:08:26.076Z,43.50
2022-12-14T10:11:03.683Z,43.25
2022-12-14T10:13:45.798Z,43.09
2022-12-14T10:16:24.503Z,43.31
2022-12-14T10:19:13.684Z,42.52
2022-12-14T10:21:51.031Z,42.39
2022-12-14T10:24:24.770Z,42.36
2022-12-14T10:26:55.662Z,42.54
2022-12-14T10:29:32.479Z,42.05
2022-12-14T10:32:13.761Z,42.30
2022-12-14T10:34:44.568Z,41.92
2022-12-14T10:37:23.553Z,42.25
2022-12-14T10:40:12.455Z,41.63
2022-12-14T10:42:57.409Z,42.35
2022-12-14T10:45:41.533Z,42.38
2022-12-14T10:48:42.194Z,41.87
2022-12-14T10:51:14.147Z,40.38
2022-12-14T10:53:48.849Z,41.29
2022-12-14T10:56:24.314Z,41.70
2022-12-14T10:59:26.596Z,42.22
2022-12-14T11:02:02.753Z,42.06
2022-12-14T11:04:35.843Z,41.23
2022-12-14T11:07:07.194Z,41.63
2022-12-14T11:09:36.891Z,41.59
2022-12-14T11:12:16.169Z,42.55
2022-12-14T11:14:56.107Z,41.36
2022-12-14T11:17:37.766Z,41.67
2022-12-14T11:20:23.255Z,40.65
2022-12-14T11:22:54.983Z,41.10
2022-12-14T11:25:37.643Z,41.65
2022-12-14T11:28:35.985Z,41.81
2022-12-14T11:31:07.695Z,42.43
2022-12-14T11:33:41.151Z,41.81
2022-12-14T11:36:10.896Z,42.09
2022-12-14T11:38:39.182Z,41.49
2022-12-14T11:41:11.741Z,41.57
2022-12-14T11:43:41.918Z,40.58
2022-12-14T11:46:10.414Z,40.32
2022-12-14T11:48:49.072Z,40.40
2022-12-14T11:51:17.401Z,40.91
2022-12-14T11:54:02.431Z,40.32
2022-12-14T11:56:30.809Z,39.65
2022-12-14T11:59:00.651Z,39.38
2022-12-14T12:01:29.182Z,39.77
2022-12-14T12:04:00.880Z,39.65
2022-12-14T12:06:31.104Z,39.51
2022-12-14T12:09:02.168Z,39.82
2022-12-14T12:11:33.937Z,38.44
2022-12-14T12:14:26.517Z,38.35
2022-12-14T12:16:55.097Z,38.17
2022-12-14T12:19:31.220Z,37.77
2022-12-14T12:22:02.519Z,37.79
2022-12-14T12:24:41.634Z,37.35
2022-12-14T12:27:19.549Z,37.73
2022-12-14T12:29:55.378Z,37.04
2022-12-14T12:32:28.063Z,36.66
2022-12-14T12:35:11.275Z,36.66
2022-12-14T12:37:46.060Z,37.66
2022-12-14T12:40:25.587Z,38.30
2022-12-14T12:43:00.155Z,37.75
2022-12-14T12:45:35.736Z,37.35
2022-12-14T12:48:11.311Z,37.24
2022-12-14T12:50:49.777Z,38.45
2022-12-14T12:53:23.500Z,37.81
2022-12-14T12:55:55.064Z,38.34
2022-12-14T12:58:27.806Z,36.88
2022-12-14T13:01:03.604Z,36.12
2022-12-14T13:03:38.874Z,36.31
2022-12-14T13:06:17.202Z,37.19
2022-12-14T13:08:49.759Z,37.26
2022-12-14T13:11:26.461Z,36.72
2022-12-14T13:14:00.993Z,36.32
2022-12-14T13:16:34.809Z,36.33
2022-12-14T13:19:48.142Z,36.69
2022-12-14T13:22:05.863Z,36.49
2022-12-14T13:24:37.335Z,37.51
2022-12-14T13:27:48.677Z,37.71
2022-12-14T13:30:27.083Z,37.52
2022-12-14T13:33:31.003Z,37.05
2022-12-14T13:36:31.106Z,37.19
2022-12-14T13:39:30.831Z,36.39
2022-12-14T13:42:08.373Z,36.24
2022-12-14T13:44:52.687Z,35.58
2022-12-14T13:47:23.976Z,35.16
2022-12-14T13:50:34.253Z,34.74
2022-12-14T13:52:48.585Z,34.20
2022-12-14T13:55:36.754Z,34.41
2022-12-14T13:58:18.777Z,34.23
2022-12-14T14:00:59.929Z,34.70
2022-12-14T14:03:53.713Z,34.44
2022-12-14T14:06:39.013Z,34.22
2022-12-14T14:10:00.354Z,34.36
2022-12-14T14:12:44.897Z,34.65
2022-12-14T14:15:31.475Z,35.00
2022-12-14T14:18:14.401Z,35.26
2022-12-14T14:20:46.841Z,35.69
2022-12-14T14:23:37.035Z,36.03
2022-12-14T14:26:23.641Z,37.72
2022-12-14T14:29:27.295Z,38.19
2022-12-14T14:31:59.784Z,38.48
2022-12-14T14:34:40.737Z,38.64
2022-12-14T14:37:25.185Z,39.75
2022-12-14T14:40:16.613Z,39.84
2022-12-14T14:42:54.169Z,40.51
2022-12-14T14:45:32.171Z,40.70
2022-12-14T14:48:03.351Z,40.70
2022-12-14T14:50:36.844Z,41.30
2022-12-14T14:53:30.713Z,42.28
2022-12-14T14:56:07.555Z,41.40
2022-12-14T14:58:38.773Z,42.52
2022-12-14T15:01:25.650Z,43.03
2022-12-14T15:03:58.638Z,43.01
2022-12-14T15:06:30.283Z,43.34
2022-12-14T15:09:06.041Z,43.46
2022-12-14T15:11:45.983Z,43.81
2022-12-14T15:14:31.544Z,44.30
2022-12-14T15:17:04.054Z,44.66
2022-12-14T15:19:36.023Z,45.19
2022-12-14T15:22:07.590Z,45.91
2022-12-14T15:24:42.362Z,46.45
2022-12-14T15:27:25.606Z,46.53
2022-12-14T15:29:54.547Z,45.34
2022-12-14T15:32:25.358Z,44.75
2022-12-14T15:34:58.240Z,44.83
2022-12-14T15:37:31.020Z,45.09
2022-12-14T15:40:07.954Z,44.94
2022-12-14T15:42:47.977Z,45.51
2022-12-14T15:45:20.049Z,45.81
2022-12-14T15:47:49.234Z,46.32
2022-12-14T15:50:29.641Z,46.82
2022-12-14T15:53:02.621Z,47.15
2022-12-14T15:55:36.998Z,47.11
2022-12-14T15:58:16.937Z,47.54
2022-12-14T16:00:49.188Z,48.39
2022-12-14T16:03:27.488Z,47.78
2022-12-14T16:05:56.725Z,48.17
2022-12-14T16:08:26.273Z,49.48
2022-12-14T16:10:57.378Z,50.04
2022-12-14T16:13:32.248Z,50.88
2022-12-14T16:16:09.219Z,50.30
2022-12-14T16:18:41.138Z,49.71
2022-12-14T16:21:28.986Z,50.25
2022-12-14T16:23:57.878Z,50.34
2022-12-14T16:26:28.212Z,49.85
2022-12-14T16:29:23.049Z,49.05
2022-12-14T16:31:51.666Z,48.74
2022-12-14T16:34:23.520Z,49.45
2022-12-14T16:37:23.205Z,49.10
2022-12-14T16:39:46.839Z,50.02
2022-12-14T16:42:20.639Z,50.32
2022-12-14T16:44:53.834Z,50.99
2022-12-14T16:47:31.766Z,49.75
2022-12-14T16:50:00.649Z,51.23
2022-12-14T16:52:31.201Z,52.00
2022-12-14T16:55:11.872Z,52.09
2022-12-14T16:57:43.427Z,52.78
2022-12-14T17:00:24.818Z,53.22
2022-12-14T17:03:00.212Z,53.48
2022-12-14T17:05:34.428Z,52.78
2022-12-14T17:08:03.193Z,52.58
2022-12-14T17:10:32.716Z,52.44
2022-12-14T17:13:03.225Z,52.51
2022-12-14T17:15:34.764Z,53.14
2022-12-14T17:18:05.681Z,53.21
2022-12-14T17:20:37.021Z,54.36
2022-12-14T17:23:09.200Z,53.67
2022-12-14T17:25:37.618Z,53.41
2022-12-14T17:28:18.448Z,53.11
2022-12-14T17:30:48.627Z,53.81
2022-12-14T17:33:17.154Z,53.58
2022-12-14T17:35:45.799Z,53.96
2022-12-14T17:38:16.153Z,54.63
2022-12-14T17:40:46.521Z,55.20
2022-12-14T17:43:27.232Z,54.84
2022-12-14T17:46:01.063Z,54.81
2022-12-14T17:48:30.304Z,54.33
2022-12-14T17:50:58.599Z,54.16
2022-12-14T17:53:30.930Z,53.73
2022-12-14T17:55:59.608Z,53.77
2022-12-14T17:58:27.877Z,53.52
2022-12-14T18:01:04.050Z,54.11
2022-12-14T18:03:36.225Z,54.28
2022-12-14T18:06:05.691Z,54.14
2022-12-14T18:08:33.988Z,54.47
2022-12-14T18:11:11.871Z,53.79
2022-12-14T18:13:42.625Z,54.37
2022-12-14T18:16:17.999Z,54.45
2022-12-14T18:18:46.768Z,54.78
2022-12-14T18:21:20.352Z,54.96
2022-12-14T18:23:50.096Z,55.83
2022-12-14T18:26:21.121Z,55.99
2022-12-14T18:28:50.219Z,55.83
2022-12-14T18:31:28.437Z,55.42
2022-12-14T18:33:56.830Z,55.53
2022-12-14T18:36:25.402Z,55.42
2022-12-14T18:38:53.882Z,55.41
2022-12-14T18:41:24.698Z,55.97
2022-12-14T18:43:54.333Z,55.98
2022-12-14T18:46:24.930Z,56.17
2022-12-14T18:48:53.674Z,56.51
2022-12-14T18:51:26.203Z,56.31
2022-12-14T18:53:56.152Z,56.39
2022-12-14T18:56:28.336Z,56.79
2022-12-14T18:58:56.800Z,56.32
2022-12-14T19:01:26.547Z,56.87
2022-12-14T19:03:55.309Z,56.65
2022-12-14T19:09:14.947Z,56.96
2022-12-14T19:11:44.423Z,56.79
2022-12-14T19:14:13.414Z,56.83
2022-12-14T19:16:43.135Z,56.96
2022-12-14T19:19:11.482Z,57.39
2022-12-14T19:21:39.759Z,57.50
2022-12-14T19:24:09.567Z,57.83
2022-12-14T19:26:39.496Z,58.77
2022-12-14T19:29:08.151Z,58.62
2022-12-14T19:31:36.803Z,58.91
2022-12-14T19:34:06.866Z,58.78
2022-12-14T19:36:35.147Z,58.75
2022-12-14T19:39:03.693Z,58.24
2022-12-14T19:41:32.326Z,58.27
2022-12-14T19:44:00.668Z,58.53
2022-12-14T19:46:29.379Z,58.56
2022-12-14T19:48:59.661Z,58.43
2022-12-14T19:51:29.515Z,59.06
2022-12-14T19:53:57.822Z,58.97
2022-12-14T19:56:26.231Z,59.28
2022-12-14T19:58:57.954Z,59.47
2022-12-14T20:01:26.365Z,59.92
2022-12-14T20:03:54.963Z,60.25
2022-12-14T20:06:23.519Z,60.36
2022-12-14T20:08:53.122Z,61.44
2022-12-14T20:11:21.476Z,62.42
2022-12-14T20:13:56.261Z,62.94
2022-12-14T20:16:27.381Z,62.69
2022-12-14T20:18:56.548Z,63.08
2022-12-14T20:21:29.167Z,62.73
2022-12-14T20:24:00.042Z,63.12
2022-12-14T20:26:30.017Z,62.81
2022-12-14T20:29:04.953Z,63.49
2022-12-14T20:31:33.816Z,63.61
2022-12-14T20:34:03.291Z,63.52
2022-12-14T20:36:33.725Z,64.02
2022-12-14T20:39:03.292Z,64.25
2022-12-14T20:41:32.666Z,63.88
2022-12-14T20:44:03.044Z,64.39
2022-12-14T20:46:34.186Z,64.23
2022-12-14T20:49:05.483Z,64.55
2022-12-14T20:51:36.759Z,64.78
2022-12-14T20:54:08.713Z,64.93
2022-12-14T20:56:37.211Z,65.12
2022-12-14T20:59:06.654Z,66.52
2022-12-14T21:01:37.204Z,66.74
2022-12-14T21:04:06.906Z,67.33
2022-12-14T21:06:39.492Z,68.45
2022-12-14T21:09:13.017Z,69.61
2022-12-14T21:12:02.915Z,69.50
2022-12-14T21:14:33.996Z,69.85
2022-12-14T21:17:03.849Z,70.07
2022-12-14T21:19:33.250Z,70.86
2022-12-14T21:22:01.547Z,71.89
2022-12-14T21:27:23.804Z,73.80
2022-12-14T21:29:53.068Z,73.33
2022-12-14T21:32:22.822Z,73.42
2022-12-14T21:34:51.613Z,73.40
2022-12-14T21:37:20.787Z,73.65
2022-12-14T21:39:55.277Z,73.55
2022-12-14T21:42:24.314Z,73.49
2022-12-14T21:44:55.163Z,73.70
2022-12-14T21:47:26.521Z,73.48
2022-12-14T21:49:55.172Z,73.41
2022-12-14T21:52:26.754Z,73.28
2022-12-14T21:54:58.556Z,73.26
2022-12-14T21:57:50.419Z,73.66
2022-12-14T22:00:20.194Z,73.76
2022-12-14T22:02:48.929Z,73.41
2022-12-14T22:05:17.516Z,73.60
2022-12-14T22:07:46.743Z,73.72
2022-12-14T22:10:22.875Z,73.38
2022-12-14T22:12:53.111Z,73.35
2022-12-14T22:15:21.449Z,73.10
2022-12-14T22:17:51.739Z,73.10
2022-12-14T22:20:20.124Z,73.06
2022-12-14T22:22:48.423Z,73.37
2022-12-14T22:25:18.276Z,74.00
2022-12-14T22:27:49.555Z,74.28
2022-12-14T22:30:19.011Z,74.00
2022-12-14T22:32:47.821Z,75.30
2022-12-14T22:35:16.378Z,75.81
2022-12-14T22:37:44.644Z,76.24
2022-12-14T22:40:14.181Z,76.09
2022-12-14T22:42:43.889Z,75.75
2022-12-14T22:45:12.431Z,75.75
2022-12-14T22:47:40.662Z,75.69
2022-12-14T22:50:10.266Z,75.23
2022-12-14T22:52:38.580Z,75.67
2022-12-14T22:55:07.900Z,75.90
2022-12-14T22:57:41.579Z,75.72
2022-12-14T23:00:16.523Z,75.74
2022-12-14T23:02:48.323Z,75.90
2022-12-14T23:05:17.670Z,75.90
2022-12-14T23:07:45.928Z,75.59
2022-12-14T23:10:31.773Z,75.74
2022-12-14T23:13:17.300Z,74.68
2022-12-14T23:16:04.517Z,74.23
2022-12-14T23:18:50.480Z,74.07
2022-12-14T23:21:36.603Z,74.61
2022-12-14T23:24:24.557Z,73.88
2022-12-14T23:27:10.335Z,73.82
2022-12-14T23:29:56.269Z,74.45
2022-12-14T23:32:43.558Z,74.58
2022-12-14T23:35:29.233Z,75.30
2022-12-14T23:38:14.890Z,75.62
2022-12-14T23:41:00.775Z,75.78
2022-12-14T23:43:46.437Z,75.61
2022-12-14T23:46:32.476Z,75.58
2022-12-14T23:49:19.645Z,75.46
2022-12-14T23:52:05.596Z,75.38
2022-12-14T23:54:51.760Z,75.65
2022-12-14T23:57:37.767Z,76.06
